Time;durP1;ratioP1;P1;durP2;ratioP2;P2;SDS_P1;SDS_P2;PMS_P1;PMS_P2;Temp;Humidity;BMP_temperature;BMP_pressure;BME280_temperature;BME280_humidity;BME280_pressure;Samples;Min_cycle;Max_cycle;Signal;HPM_P1;HPM_P2
2022/01/13 00:00:18;;;;;;;257.15;45.97;;;5.10;99.90;;;;;;5072887;28;20032;-70
2022/01/13 00:02:45;;;;;;;229.30;41.60;;;5.50;99.90;;;;;;5073015;28;20058;-70
2022/01/13 00:05:10;;;;;;;247.35;44.95;;;5.10;99.90;;;;;;5072946;28;20516;-70
2022/01/13 00:07:36;;;;;;;247.98;41.63;;;5.10;99.90;;;;;;5082587;28;20050;-70
2022/01/13 00:10:06;;;;;;;256.80;45.88;;;5.10;99.90;;;;;;5088176;28;20043;-70
2022/01/13 00:12:38;;;;;;;251.13;43.97;;;5.10;99.90;;;;;;5091992;28;20499;-70
2022/01/13 00:15:19;;;;;;;253.02;43.30;;;5.10;99.90;;;;;;5084246;28;20047;-70
2022/01/13 00:17:58;;;;;;;261.20;43.15;;;5.10;99.90;;;;;;5074095;28;20043;-70
2022/01/13 00:25:37;;;;;;;245.40;40.42;;;5.10;99.90;;;;;;5054769;28;20043;-70
2022/01/13 00:28:12;;;;;;;309.00;46.63;;;5.00;99.90;;;;;;5073937;28;20042;-70
2022/01/13 00:30:37;;;;;;;356.90;52.58;;;5.10;99.90;;;;;;5067706;28;20094;-70
2022/01/13 00:33:03;;;;;;;252.27;40.80;;;5.10;99.90;;;;;;5075751;28;20043;-69
2022/01/13 00:35:29;;;;;;;238.98;39.95;;;5.10;99.90;;;;;;5089100;28;20079;-69
2022/01/13 00:37:54;;;;;;;288.25;44.95;;;5.10;99.90;;;;;;5090812;28;20047;-69
2022/01/13 00:40:20;;;;;;;300.02;42.38;;;5.10;99.90;;;;;;5087806;28;20047;-69
2022/01/13 00:42:46;;;;;;;304.58;47.15;;;5.10;99.90;;;;;;5090734;28;20067;-69
2022/01/13 00:45:14;;;;;;;260.30;42.92;;;5.10;99.90;;;;;;5080147;28;20048;-69
2022/01/13 00:47:41;;;;;;;250.70;41.88;;;5.10;99.90;;;;;;5072227;28;20085;-69
2022/01/13 00:50:07;;;;;;;342.30;49.42;;;5.10;99.90;;;;;;5085577;28;20050;-69
2022/01/13 00:52:33;;;;;;;310.83;45.47;;;5.10;99.90;;;;;;5092163;28;20032;-69
2022/01/13 00:55:05;;;;;;;279.05;46.50;;;5.60;99.90;;;;;;5088183;28;20044;-69
2022/01/13 00:57:32;;;;;;;265.92;42.03;;;5.10;99.90;;;;;;5064453;28;20278;-69
2022/01/13 00:59:59;;;;;;;239.35;43.42;;;5.10;99.90;;;;;;5077951;28;20047;-69
2022/01/13 01:02:26;;;;;;;268.55;41.35;;;5.10;99.90;;;;;;5088336;28;20486;-69
2022/01/13 01:04:51;;;;;;;226.73;39.95;;;5.30;99.90;;;;;;5085287;28;20066;-69
2022/01/13 01:07:18;;;;;;;265.02;42.33;;;5.10;99.90;;;;;;5068118;28;20035;-69
2022/01/13 01:09:50;;;;;;;253.45;41.85;;;5.10;99.90;;;;;;5069339;28;20039;-69
2022/01/13 01:12:18;;;;;;;283.90;44.42;;;5.10;99.90;;;;;;5072269;28;20097;-69
2022/01/13 01:14:48;;;;;;;202.35;32.90;;;5.10;99.90;;;;;;5107916;27;20061;-69
2022/01/13 01:17:16;;;;;;;200.75;37.15;;;5.80;99.90;;;;;;5096935;28;20108;-69
2022/01/13 01:19:47;;;;;;;199.75;38.50;;;5.10;99.90;;;;;;5086460;28;20130;-69
2022/01/13 01:25:58;;;;;;;193.38;36.95;;;5.10;99.90;;;;;;5080895;28;20058;-69
2022/01/13 01:27:45;;;;;;;197.77;35.67;;;5.40;99.90;;;;;;5065701;28;20423;-69
2022/01/13 01:30:14;;;;;;;;;;;5.10;99.90;;;;;;5087472;28;20036;-69
2022/01/13 01:32:40;;;;;;;138.70;30.88;;;5.10;99.90;;;;;;5068542;28;19919;-69
2022/01/13 01:35:14;;;;;;;120.82;26.60;;;5.20;99.90;;;;;;5086585;28;20043;-69
2022/01/13 01:37:41;;;;;;;155.88;35.13;;;5.00;99.90;;;;;;5064391;28;20395;-69
2022/01/13 01:40:09;;;;;;;116.13;28.02;;;5.00;99.90;;;;;;5083992;28;20048;-69
2022/01/13 01:42:35;;;;;;;160.10;34.40;;;5.00;99.90;;;;;;5084617;28;20521;-69
2022/01/13 01:45:01;;;;;;;134.02;31.77;;;5.00;99.90;;;;;;5090538;28;20126;-69
2022/01/13 01:47:29;;;;;;;178.38;36.97;;;5.00;99.90;;;;;;5080369;28;20036;-69
2022/01/13 01:49:58;;;;;;;120.30;30.90;;;5.00;99.90;;;;;;5098804;27;20035;-69
2022/01/13 01:52:26;;;;;;;157.55;33.92;;;5.00;99.90;;;;;;5088228;28;20027;-69
2022/01/13 01:54:52;;;;;;;156.50;32.65;;;5.00;99.90;;;;;;5080467;28;20036;-69
2022/01/13 01:57:20;;;;;;;154.15;33.28;;;4.90;99.90;;;;;;5068932;28;20051;-69
2022/01/13 01:59:46;;;;;;;109.72;27.38;;;4.90;99.90;;;;;;5065805;28;20046;-69
2022/01/13 02:02:14;;;;;;;139.88;30.48;;;4.90;99.90;;;;;;5086267;28;20414;-69
2022/01/13 02:04:40;;;;;;;149.80;32.80;;;5.00;99.90;;;;;;5076456;28;20044;-69
2022/01/13 02:07:07;;;;;;;143.73;31.27;;;5.00;99.90;;;;;;5087869;28;20088;-69
2022/01/13 02:09:36;;;;;;;136.75;30.33;;;5.00;99.90;;;;;;5087716;28;20475;-69
2022/01/13 02:12:07;;;;;;;126.00;29.27;;;5.00;99.90;;;;;;5083916;28;20036;-69
2022/01/13 02:14:46;;;;;;;122.53;28.67;;;5.00;99.90;;;;;;5086709;28;20452;-69
2022/01/13 02:17:20;;;;;;;140.57;30.23;;;5.20;99.90;;;;;;5069509;28;21733;-69
2022/01/13 02:19:46;;;;;;;108.35;27.73;;;5.00;99.90;;;;;;5071185;28;20070;-69
2022/01/13 02:22:13;;;;;;;136.95;30.88;;;5.00;99.90;;;;;;5071884;28;20031;-69
2022/01/13 02:24:39;;;;;;;136.73;31.13;;;5.00;99.90;;;;;;5086309;28;20080;-69
2022/01/13 02:27:06;;;;;;;100.38;26.27;;;5.00;99.90;;;;;;5088236;28;20130;-69
2022/01/13 02:29:32;;;;;;;152.77;32.30;;;5.50;99.90;;;;;;5083866;28;20063;-69
2022/01/13 02:31:58;;;;;;;126.53;31.70;;;5.00;99.90;;;;;;5084872;28;20101;-69
2022/01/13 02:34:24;;;;;;;112.97;29.45;;;5.20;99.90;;;;;;5069739;28;20084;-69
2022/01/13 02:36:54;;;;;;;120.53;30.58;;;5.00;99.90;;;;;;5083202;28;20040;-69
2022/01/13 02:39:30;;;;;;;130.85;31.98;;;5.00;99.90;;;;;;5068274;28;20450;-69
2022/01/13 02:41:57;;;;;;;123.57;30.88;;;5.00;99.90;;;;;;5083674;28;20062;-69
2022/01/13 02:44:24;;;;;;;101.38;26.50;;;5.00;99.90;;;;;;5086994;28;20039;-69
2022/01/13 02:49:22;;;;;;;123.10;30.65;;;5.00;99.90;;;;;;5084831;28;20160;-69
2022/01/13 02:51:50;;;;;;;96.22;27.58;;;5.00;99.90;;;;;;5089193;28;20506;-69
2022/01/13 02:54:16;;;;;;;120.40;27.98;;;5.00;99.90;;;;;;5087414;28;20733;-69
2022/01/13 02:56:44;;;;;;;119.53;30.27;;;5.90;99.90;;;;;;5069888;28;20048;-70
2022/01/13 02:59:10;;;;;;;103.93;27.45;;;5.00;99.90;;;;;;5055225;28;20127;-70
2022/01/13 03:01:36;;;;;;;100.18;23.73;;;5.00;99.90;;;;;;5090065;28;20118;-70
2022/01/13 03:04:06;;;;;;;102.57;25.80;;;5.10;99.90;;;;;;5075278;28;20063;-70
2022/01/13 03:06:37;;;;;;;110.97;28.33;;;5.30;99.90;;;;;;5088551;28;20054;-69
2022/01/13 03:09:05;;;;;;;111.25;26.08;;;4.90;99.90;;;;;;5086693;28;20679;-69
2022/01/13 03:11:37;;;;;;;100.32;26.98;;;4.90;99.90;;;;;;5089466;28;20074;-69
2022/01/13 03:14:11;;;;;;;69.85;23.35;;;4.90;99.90;;;;;;5086748;28;20043;-69
2022/01/13 03:16:45;;;;;;;60.88;17.02;;;4.90;99.90;;;;;;5083580;28;20043;-69
2022/01/13 03:19:11;;;;;;;98.82;24.70;;;5.30;99.90;;;;;;5084714;28;20433;-69
2022/01/13 03:21:37;;;;;;;79.03;21.15;;;4.90;99.90;;;;;;5070723;28;20047;-69
2022/01/13 03:24:08;;;;;;;109.32;29.30;;;4.90;99.90;;;;;;5089840;28;20082;-69
2022/01/13 03:26:35;;;;;;;109.15;27.40;;;4.90;99.90;;;;;;5087932;28;20456;-69
2022/01/13 03:29:15;;;;;;;160.15;31.55;;;4.90;99.90;;;;;;5088934;28;20448;-69
2022/01/13 03:31:41;;;;;;;120.57;30.02;;;4.90;99.90;;;;;;5082036;28;20071;-69
2022/01/13 03:34:07;;;;;;;100.20;23.38;;;4.90;99.90;;;;;;5088357;28;20093;-69
2022/01/13 03:36:33;;;;;;;84.00;22.05;;;5.20;99.90;;;;;;5085860;28;20484;-69
2022/01/13 03:38:59;;;;;;;93.75;23.48;;;4.90;99.90;;;;;;5089099;28;20076;-69
2022/01/13 03:41:25;;;;;;;123.38;29.73;;;4.90;99.90;;;;;;5089942;28;20070;-69
2022/01/13 03:43:53;;;;;;;151.65;34.88;;;4.90;99.90;;;;;;5082506;28;20039;-69
2022/01/13 03:46:19;;;;;;;120.75;26.55;;;4.90;99.90;;;;;;5088696;28;20042;-69
2022/01/13 03:48:44;;;;;;;141.70;29.17;;;4.90;99.90;;;;;;5082866;28;20044;-69
2022/01/13 03:51:10;;;;;;;120.80;29.27;;;5.30;99.90;;;;;;5063133;28;20063;-69
2022/01/13 03:54:05;;;;;;;103.45;25.92;;;4.90;99.90;;;;;;5087206;28;21505;-69
2022/01/13 03:56:50;;;;;;;136.35;28.15;;;4.90;99.90;;;;;;5087458;28;20071;-69
2022/01/13 03:59:29;;;;;;;133.15;28.23;;;4.90;99.90;;;;;;5072098;28;20123;-69
2022/01/13 04:02:11;;;;;;;119.47;26.40;;;4.90;99.90;;;;;;5087112;28;20154;-69
2022/01/13 04:04:42;;;;;;;145.80;30.13;;;4.90;99.90;;;;;;5068586;28;20078;-69
2022/01/13 04:07:16;;;;;;;94.80;23.52;;;4.90;99.90;;;;;;5090099;28;20073;-69
2022/01/13 04:09:41;;;;;;;99.93;24.90;;;4.80;99.90;;;;;;5071763;28;20031;-69
2022/01/13 04:12:11;;;;;;;134.00;28.85;;;5.40;99.90;;;;;;5091318;28;20040;-69
2022/01/13 04:14:47;;;;;;;100.45;23.23;;;4.90;99.90;;;;;;5072801;28;20035;-69
2022/01/13 04:17:16;;;;;;;92.18;23.05;;;5.00;99.90;;;;;;5084032;28;20472;-69
2022/01/13 04:19:42;;;;;;;80.65;21.17;;;4.80;99.90;;;;;;5090298;28;20050;-69
2022/01/13 04:22:09;;;;;;;152.85;29.58;;;5.30;99.90;;;;;;5081193;28;20131;-69
2022/01/13 04:24:42;;;;;;;111.88;23.33;;;4.80;99.90;;;;;;5087522;28;20098;-69
2022/01/13 04:27:09;;;;;;;118.95;23.25;;;4.90;99.90;;;;;;5086270;28;20039;-69
2022/01/13 04:29:38;;;;;;;151.40;27.63;;;4.80;99.90;;;;;;5071784;28;20032;-69
2022/01/13 04:32:05;;;;;;;147.30;27.50;;;4.80;99.90;;;;;;5082724;28;20031;-69
2022/01/13 04:34:31;;;;;;;151.88;29.67;;;4.90;99.90;;;;;;5086378;28;20089;-69
2022/01/13 04:37:00;;;;;;;126.35;25.73;;;4.80;99.90;;;;;;5083458;28;20070;-69
2022/01/13 04:39:31;;;;;;;101.22;23.08;;;4.90;99.90;;;;;;5085902;28;20039;-69
2022/01/13 04:41:57;;;;;;;117.47;24.50;;;4.90;99.90;;;;;;5102383;28;20495;-69
2022/01/13 04:44:25;;;;;;;109.30;23.98;;;4.80;99.90;;;;;;5080002;28;20047;-69
2022/01/13 04:46:54;;;;;;;90.80;20.48;;;4.80;99.90;;;;;;5090419;28;20131;-69
2022/01/13 04:49:20;;;;;;;94.32;21.20;;;5.10;99.90;;;;;;5085089;28;20040;-69
2022/01/13 04:51:48;;;;;;;101.90;22.00;;;4.80;99.90;;;;;;5085468;28;20066;-69
2022/01/13 04:54:14;;;;;;;95.65;20.15;;;4.80;99.90;;;;;;5082440;28;20514;-69
2022/01/13 04:59:15;;;;;;;89.22;20.48;;;5.50;99.90;;;;;;5087149;28;20048;-69
2022/01/13 05:01:41;;;;;;;121.03;23.60;;;4.80;99.90;;;;;;5093780;28;20040;-69
2022/01/13 05:04:07;;;;;;;111.80;24.30;;;4.80;99.90;;;;;;5088898;28;20415;-69
2022/01/13 05:06:34;;;;;;;112.93;26.60;;;4.80;99.90;;;;;;5083726;28;20046;-69
2022/01/13 05:09:00;;;;;;;86.47;21.55;;;4.80;99.90;;;;;;5068209;28;20084;-69
2022/01/13 05:11:25;;;;;;;110.75;24.70;;;4.80;99.90;;;;;;5067157;28;20431;-69
2022/01/13 05:13:52;;;;;;;112.65;24.60;;;4.70;99.90;;;;;;5068665;28;20047;-69
2022/01/13 05:16:29;;;;;;;104.32;24.23;;;4.70;99.90;;;;;;5086323;28;20039;-69
2022/01/13 05:19:09;;;;;;;67.65;18.20;;;4.70;99.90;;;;;;5055556;28;20043;-70
2022/01/13 05:24:10;;;;;;;85.50;19.60;;;4.70;99.90;;;;;;5077635;28;20040;-70
2022/01/13 05:26:36;;;;;;;92.53;24.15;;;4.70;99.90;;;;;;5080436;28;20509;-70
2022/01/13 05:29:02;;;;;;;41.15;14.20;;;4.70;99.90;;;;;;5067119;28;20077;-70
2022/01/13 05:31:28;;;;;;;104.88;26.60;;;4.70;99.90;;;;;;5086001;28;20486;-70
2022/01/13 05:33:54;;;;;;;79.25;21.00;;;4.70;99.90;;;;;;5084694;28;20047;-70
2022/01/13 05:36:19;;;;;;;94.13;23.05;;;5.40;99.90;;;;;;5080474;28;20423;-70
2022/01/13 05:38:45;;;;;;;98.65;22.15;;;4.60;99.90;;;;;;5084002;28;20109;-70
2022/01/13 05:41:11;;;;;;;97.78;24.63;;;4.70;99.90;;;;;;5083332;28;20051;-70
2022/01/13 05:43:37;;;;;;;125.35;26.05;;;4.80;99.90;;;;;;5072819;28;20081;-70
2022/01/13 05:46:03;;;;;;;105.90;26.52;;;4.90;99.90;;;;;;5082493;28;20413;-70
2022/01/13 05:48:31;;;;;;;147.07;30.90;;;4.80;99.90;;;;;;5079296;28;20032;-70
2022/01/13 05:50:57;;;;;;;98.25;24.08;;;4.80;99.90;;;;;;5104667;28;20236;-70
2022/01/13 05:53:22;;;;;;;116.28;26.70;;;4.70;99.90;;;;;;5083524;28;20043;-69
2022/01/13 05:55:48;;;;;;;122.43;28.58;;;4.80;99.90;;;;;;5089553;28;20124;-69
2022/01/13 05:58:14;;;;;;;136.90;29.60;;;4.80;99.90;;;;;;5092437;28;20051;-70
2022/01/13 06:00:40;;;;;;;141.77;29.35;;;5.30;99.90;;;;;;5086437;28;20103;-70
2022/01/13 06:03:05;;;;;;;152.40;30.35;;;5.30;99.90;;;;;;5083154;28;20040;-70
2022/01/13 06:05:32;;;;;;;134.25;27.85;;;5.50;99.90;;;;;;5071978;28;20032;-70
2022/01/13 06:07:58;;;;;;;115.03;25.77;;;4.80;99.90;;;;;;5089979;28;21247;-70
2022/01/13 06:10:24;;;;;;;116.32;23.30;;;4.80;99.90;;;;;;5072629;28;20121;-70
2022/01/13 06:12:52;;;;;;;150.32;30.63;;;5.00;99.90;;;;;;5088717;28;20142;-70
2022/01/13 06:15:20;;;;;;;148.02;31.83;;;4.90;99.90;;;;;;5085592;28;20542;-70
2022/01/13 06:17:50;;;;;;;144.95;32.67;;;4.80;99.90;;;;;;5088274;28;20716;-70
2022/01/13 06:20:17;;;;;;;121.53;28.60;;;4.80;99.90;;;;;;5082528;28;20039;-70
2022/01/13 06:22:44;;;;;;;136.43;30.95;;;4.80;99.90;;;;;;5089186;28;20035;-70
2022/01/13 06:25:11;;;;;;;159.30;33.45;;;4.80;99.90;;;;;;5089684;27;20064;-70
2022/01/13 06:27:38;;;;;;;105.32;27.38;;;4.80;99.90;;;;;;5070471;28;20038;-70
2022/01/13 06:30:05;;;;;;;111.40;28.02;;;4.80;99.90;;;;;;5077810;28;20032;-70
2022/01/13 06:32:31;;;;;;;122.90;28.38;;;4.80;99.90;;;;;;5079628;28;20036;-70
2022/01/13 06:34:57;;;;;;;108.82;26.40;;;4.80;99.90;;;;;;5071740;28;20686;-70
2022/01/13 06:37:22;;;;;;;121.57;28.90;;;4.80;99.90;;;;;;5084348;28;20411;-69
2022/01/13 06:39:48;;;;;;;107.82;25.08;;;4.80;99.90;;;;;;5080690;28;20072;-69
2022/01/13 06:42:14;;;;;;;80.55;20.42;;;4.80;99.90;;;;;;5087773;28;20042;-70
2022/01/13 06:44:40;;;;;;;88.00;21.55;;;4.80;99.90;;;;;;5080698;28;20036;-70
2022/01/13 06:47:06;;;;;;;83.63;23.50;;;4.80;99.90;;;;;;5055537;28;20564;-69
2022/01/13 06:49:34;;;;;;;103.85;25.48;;;4.80;99.90;;;;;;5087180;28;20024;-70
2022/01/13 06:52:00;;;;;;;113.75;26.05;;;4.80;99.90;;;;;;5098989;28;20543;-70
2022/01/13 06:54:26;;;;;;;89.68;24.50;;;4.80;99.90;;;;;;5057246;28;20423;-69
2022/01/13 06:56:52;;;;;;;101.05;26.27;;;4.80;99.90;;;;;;5082882;28;20052;-70
2022/01/13 06:59:19;;;;;;;114.00;26.65;;;4.80;99.90;;;;;;5070618;28;20035;-70
2022/01/13 07:01:45;;;;;;;80.45;22.75;;;4.90;99.90;;;;;;5083618;28;20054;-69
2022/01/13 07:04:13;;;;;;;111.32;27.75;;;4.80;99.90;;;;;;5088915;28;20087;-69
2022/01/13 07:06:40;;;;;;;75.82;21.73;;;5.50;99.90;;;;;;5067809;28;20085;-70
2022/01/13 07:09:09;;;;;;;83.40;21.75;;;4.90;99.90;;;;;;5086360;28;20471;-70
2022/01/13 07:11:35;;;;;;;106.65;27.65;;;4.80;99.90;;;;;;5084431;28;20046;-69
2022/01/13 07:14:01;;;;;;;110.32;24.25;;;4.90;99.90;;;;;;5086575;28;20043;-70
2022/01/13 07:16:27;;;;;;;78.80;19.70;;;4.90;99.90;;;;;;5073952;28;20414;-70
2022/01/13 07:18:53;;;;;;;79.03;20.50;;;4.90;99.90;;;;;;5073671;28;20042;-69
2022/01/13 07:21:21;;;;;;;90.82;22.92;;;4.90;99.90;;;;;;5085815;28;20074;-69
2022/01/13 07:23:46;;;;;;;101.60;24.38;;;4.90;99.90;;;;;;5067083;28;20563;-71
2022/01/13 07:26:12;;;;;;;111.43;26.70;;;4.90;99.90;;;;;;5081267;28;20035;-70
2022/01/13 07:28:38;;;;;;;85.85;21.25;;;4.90;99.90;;;;;;5081769;28;20039;-69
2022/01/13 07:31:04;;;;;;;76.30;19.58;;;4.90;99.90;;;;;;5073666;28;20036;-69
2022/01/13 07:33:30;;;;;;;105.78;26.60;;;5.00;99.90;;;;;;5083503;28;20035;-70
2022/01/13 07:35:56;;;;;;;87.78;22.45;;;5.00;99.90;;;;;;5069648;28;20081;-70
2022/01/13 07:38:21;;;;;;;83.55;22.83;;;5.00;99.90;;;;;;5051846;28;20040;-70
2022/01/13 07:40:47;;;;;;;74.40;19.30;;;5.00;99.90;;;;;;5079552;28;20075;-70
2022/01/13 07:43:16;;;;;;;72.50;18.45;;;5.10;99.90;;;;;;5069173;28;20491;-71
2022/01/13 07:45:42;;;;;;;104.35;29.77;;;5.00;99.90;;;;;;5079192;28;20064;-71
2022/01/13 07:48:08;;;;;;;79.80;23.20;;;5.30;99.90;;;;;;5086121;28;20067;-70
2022/01/13 07:50:34;;;;;;;82.25;18.67;;;5.60;99.90;;;;;;5090837;28;20047;-70
2022/01/13 07:53:00;;;;;;;96.22;23.15;;;5.20;99.90;;;;;;5087797;28;20036;-70
2022/01/13 07:55:26;;;;;;;88.95;22.63;;;5.00;99.90;;;;;;5075267;28;20048;-70
2022/01/13 07:57:51;;;;;;;87.55;20.60;;;5.00;99.90;;;;;;5081015;28;20759;-70
2022/01/13 08:00:17;;;;;;;102.22;24.38;;;5.00;99.90;;;;;;5056991;28;20050;-70
2022/01/13 08:02:43;;;;;;;128.80;27.73;;;4.70;99.90;;;;;;5087079;28;20137;-70
2022/01/13 08:05:10;;;;;;;85.00;21.20;;;5.50;99.90;;;;;;5083353;28;20036;-70
2022/01/13 08:07:36;;;;;;;80.72;19.10;;;5.00;99.90;;;;;;5071078;28;20053;-70
2022/01/13 08:10:03;;;;;;;78.78;21.48;;;5.30;99.90;;;;;;5083585;28;20403;-70
2022/01/13 08:12:28;;;;;;;83.88;23.98;;;5.00;99.90;;;;;;5073306;28;20141;-70
2022/01/13 08:14:54;;;;;;;65.85;18.00;;;5.00;99.90;;;;;;5075270;28;20038;-70
2022/01/13 08:20:07;;;;;;;79.53;20.20;;;5.10;99.90;;;;;;5080643;28;20055;-70
2022/01/13 08:22:34;;;;;;;71.75;19.85;;;5.00;99.90;;;;;;5093645;28;20035;-70
2022/01/13 08:24:59;;;;;;;88.15;21.95;;;5.00;99.90;;;;;;5075031;28;20036;-70
2022/01/13 08:27:25;;;;;;;104.85;24.15;;;5.10;99.90;;;;;;5094251;28;20043;-70
2022/01/13 08:29:51;;;;;;;83.05;24.02;;;5.30;99.90;;;;;;5076422;28;20036;-70
2022/01/13 08:32:18;;;;;;;91.35;24.92;;;5.60;99.90;;;;;;5087143;28;20130;-70
2022/01/13 08:34:44;;;;;;;97.65;23.23;;;5.50;99.90;;;;;;5080437;28;20329;-70
2022/01/13 08:37:10;;;;;;;104.10;27.23;;;5.20;99.90;;;;;;5085034;28;20075;-70
2022/01/13 08:39:42;;;;;;;97.60;25.92;;;5.20;99.90;;;;;;5093136;28;20105;-70
2022/01/13 08:42:08;;;;;;;88.20;25.15;;;5.20;99.90;;;;;;5093615;28;20474;-70
2022/01/13 08:44:34;;;;;;;83.60;24.45;;;5.20;99.90;;;;;;5089006;28;20553;-70
2022/01/13 08:47:00;;;;;;;102.70;25.95;;;5.30;99.90;;;;;;5086544;28;20039;-70
2022/01/13 08:49:26;;;;;;;98.70;25.38;;;5.10;99.90;;;;;;5080764;28;20116;-69
2022/01/13 08:51:53;;;;;;;84.40;23.40;;;5.80;99.90;;;;;;5089285;28;20052;-69
2022/01/13 08:54:21;;;;;;;105.32;28.40;;;5.40;99.90;;;;;;5074947;28;20074;-69
2022/01/13 08:56:47;;;;;;;99.93;23.90;;;5.40;99.90;;;;;;5066342;28;20078;-69
2022/01/13 08:59:13;;;;;;;83.68;26.02;;;5.40;99.90;;;;;;5081689;28;20085;-70
2022/01/13 09:01:38;;;;;;;105.25;26.45;;;5.40;99.90;;;;;;5082365;28;20078;-69
2022/01/13 09:04:04;;;;;;;94.82;25.83;;;5.20;99.90;;;;;;5083991;28;20093;-69
2022/01/13 09:06:31;;;;;;;94.68;25.90;;;5.40;99.90;;;;;;5080948;28;20042;-70
2022/01/13 09:08:58;;;;;;;87.32;22.95;;;5.90;99.90;;;;;;5083684;28;20055;-70
2022/01/13 09:11:24;;;;;;;91.20;27.05;;;5.40;99.90;;;;;;5088464;28;20035;-70
2022/01/13 09:13:56;;;;;;;85.15;25.40;;;5.50;99.90;;;;;;5086496;28;20136;-69
2022/01/13 09:16:24;;;;;;;95.65;27.80;;;5.50;99.90;;;;;;5078888;28;20436;-70
2022/01/13 09:21:27;;;;;;;102.15;26.55;;;5.50;99.90;;;;;;5084073;28;20067;-70
2022/01/13 09:23:54;;;;;;;88.35;26.02;;;5.60;99.90;;;;;;5078165;28;20040;-69
2022/01/13 09:26:19;;;;;;;109.68;26.88;;;5.50;99.90;;;;;;5071249;28;20035;-69
2022/01/13 09:28:45;;;;;;;96.13;26.38;;;5.50;99.90;;;;;;5071714;28;20040;-69
2022/01/13 09:31:11;;;;;;;107.70;27.15;;;5.50;99.90;;;;;;5099404;28;20036;-70
2022/01/13 09:33:37;;;;;;;115.20;27.10;;;5.40;99.90;;;;;;5081782;28;20044;-70
2022/01/13 09:36:06;;;;;;;114.65;27.30;;;5.50;99.90;;;;;;5084745;28;20078;-70
2022/01/13 09:38:33;;;;;;;111.10;28.90;;;5.60;99.90;;;;;;5080176;28;20044;-70
2022/01/13 09:40:59;;;;;;;123.97;28.02;;;5.60;99.90;;;;;;5083893;28;20054;-70
2022/01/13 09:43:26;;;;;;;111.03;29.15;;;5.60;99.90;;;;;;5071780;28;20040;-70
2022/01/13 09:45:54;;;;;;;100.25;27.00;;;5.60;99.90;;;;;;5084142;28;20032;-70
2022/01/13 09:48:20;;;;;;;101.95;27.10;;;5.60;99.90;;;;;;5060590;28;20170;-70
2022/01/13 09:50:47;;;;;;;120.45;30.52;;;5.60;99.90;;;;;;5084044;27;20032;-70
2022/01/13 09:53:15;;;;;;;113.95;29.02;;;6.20;99.90;;;;;;5085833;28;20044;-70
2022/01/13 09:55:42;;;;;;;137.90;30.70;;;5.70;99.90;;;;;;5083159;28;20118;-70
2022/01/13 09:58:11;;;;;;;118.82;29.33;;;5.70;99.90;;;;;;5068153;28;20078;-70
2022/01/13 10:00:39;;;;;;;104.70;27.00;;;6.10;99.90;;;;;;5079699;28;20118;-70
2022/01/13 10:03:18;;;;;;;122.57;31.02;;;5.70;99.90;;;;;;5086144;28;20650;-70
2022/01/13 10:05:49;;;;;;;117.00;29.02;;;5.70;99.90;;;;;;5058093;28;20364;-70
2022/01/13 10:08:15;;;;;;;109.85;28.90;;;5.80;99.90;;;;;;5085240;28;20071;-70
2022/01/13 10:10:40;;;;;;;99.13;24.35;;;5.70;99.90;;;;;;5088717;28;20094;-70
2022/01/13 10:13:11;;;;;;;110.28;28.95;;;5.80;99.90;;;;;;5064867;28;20032;-70
2022/01/13 10:18:46;;;;;;;100.75;28.45;;;5.80;99.90;;;;;;5085085;28;20082;-70
2022/01/13 10:21:18;;;;;;;85.15;26.50;;;5.80;99.90;;;;;;5084063;28;20039;-70
2022/01/13 10:24:06;;;;;;;106.35;27.92;;;5.80;99.90;;;;;;5083989;28;20484;-70
2022/01/13 10:26:34;;;;;;;78.20;23.75;;;5.90;99.90;;;;;;5088765;28;20471;-70
2022/01/13 10:29:00;;;;;;;103.18;27.95;;;5.90;99.90;;;;;;5070417;28;20058;-70
2022/01/13 10:31:45;;;;;;;90.45;25.15;;;6.00;99.90;;;;;;5077115;28;20135;-70
2022/01/13 10:34:19;;;;;;;85.63;24.75;;;5.90;99.90;;;;;;5083652;28;20487;-70
2022/01/13 10:37:10;;;;;;;98.78;26.35;;;6.10;99.90;;;;;;5089135;28;20035;-69
2022/01/13 10:39:57;;;;;;;82.97;26.05;;;5.90;99.90;;;;;;5088726;28;20028;-70
2022/01/13 10:45:27;;;;;;;93.78;25.73;;;5.90;99.90;;;;;;5103682;28;20058;-70
2022/01/13 10:47:54;;;;;;;85.85;24.13;;;5.90;99.90;;;;;;5088540;28;20114;-69
2022/01/13 10:50:24;;;;;;;91.32;28.52;;;6.00;99.90;;;;;;5082761;28;20062;-70
2022/01/13 10:52:50;;;;;;;74.75;23.35;;;6.00;99.90;;;;;;5087669;28;20040;-70
2022/01/13 10:55:22;;;;;;;70.10;19.35;;;6.00;99.90;;;;;;5082066;28;20449;-70
2022/01/13 10:57:50;;;;;;;80.90;25.65;;;6.00;99.90;;;;;;5083541;28;20060;-69
2022/01/13 11:00:22;;;;;;;80.80;23.92;;;6.70;99.90;;;;;;5086958;28;20495;-69
2022/01/13 11:03:06;;;;;;;75.85;23.25;;;6.00;99.90;;;;;;5088392;28;20051;-69
2022/01/13 11:05:39;;;;;;;72.20;22.98;;;6.00;99.90;;;;;;5087155;28;20093;-71
2022/01/13 11:08:07;;;;;;;81.38;25.33;;;6.00;99.90;;;;;;5081433;28;20035;-69
2022/01/13 11:10:35;;;;;;;85.63;27.70;;;6.30;99.90;;;;;;5086091;28;20043;-69
2022/01/13 11:13:03;;;;;;;84.35;26.33;;;6.10;99.90;;;;;;5084745;28;20031;-70
2022/01/13 11:15:30;;;;;;;79.80;23.63;;;6.10;99.90;;;;;;5083455;28;20164;-70
2022/01/13 11:17:58;;;;;;;86.35;27.50;;;6.10;99.90;;;;;;5084673;28;20126;-70
2022/01/13 11:20:25;;;;;;;79.93;23.10;;;6.20;99.90;;;;;;5085872;28;20040;-70
2022/01/13 11:22:53;;;;;;;82.22;25.33;;;6.20;99.90;;;;;;5089664;28;21012;-70
2022/01/13 11:25:23;;;;;;;77.80;24.33;;;6.30;99.90;;;;;;5089089;28;20066;-70
2022/01/13 11:27:49;;;;;;;71.78;22.35;;;6.20;99.90;;;;;;5083671;28;20039;-70
2022/01/13 11:30:21;;;;;;;80.80;23.45;;;6.70;99.90;;;;;;5089352;28;20128;-70
2022/01/13 11:32:49;;;;;;;82.03;22.52;;;6.20;99.90;;;;;;5085027;28;20043;-70
2022/01/13 11:35:23;;;;;;;86.13;24.30;;;6.20;99.90;;;;;;5080867;28;20070;-70
2022/01/13 11:37:50;;;;;;;76.35;25.23;;;6.20;99.90;;;;;;5080882;28;20522;-70
2022/01/13 11:40:28;;;;;;;62.63;19.05;;;6.20;99.90;;;;;;5090031;28;20039;-70
2022/01/13 11:43:02;;;;;;;47.03;16.48;;;6.20;99.90;;;;;;5081859;28;20071;-70
2022/01/13 11:45:28;;;;;;;67.05;22.17;;;6.20;99.90;;;;;;5061866;28;20049;-70
2022/01/13 11:48:22;;;;;;;73.72;21.45;;;6.30;99.90;;;;;;5092208;28;20475;-70
2022/01/13 11:50:53;;;;;;;56.30;16.88;;;6.20;99.90;;;;;;5093822;28;20043;-70
2022/01/13 11:53:26;;;;;;;65.75;22.00;;;6.20;99.90;;;;;;5071499;28;20040;-70
2022/01/13 11:56:04;;;;;;;40.90;13.20;;;6.70;99.90;;;;;;5088266;28;20455;-70
2022/01/13 11:58:38;;;;;;;58.50;19.98;;;6.20;99.90;;;;;;5093672;28;20050;-70
2022/01/13 12:01:23;;;;;;;55.83;18.15;;;6.20;99.90;;;;;;5073677;28;20502;-70
2022/01/13 12:03:54;;;;;;;62.17;22.30;;;6.20;99.90;;;;;;5083711;28;20044;-70
2022/01/13 12:06:43;;;;;;;51.60;20.20;;;6.50;99.90;;;;;;5084699;28;20068;-70
2022/01/13 12:09:12;;;;;;;58.80;21.08;;;6.20;99.90;;;;;;5066664;28;20403;-71
2022/01/13 12:11:51;;;;;;;66.47;22.55;;;6.30;99.90;;;;;;5088072;28;20063;-71
2022/01/13 12:14:28;;;;;;;63.70;22.30;;;6.20;99.90;;;;;;5092414;28;20043;-71
2022/01/13 12:16:58;;;;;;;71.60;24.70;;;6.20;99.90;;;;;;5078398;28;20081;-70
2022/01/13 12:19:44;;;;;;;75.88;24.42;;;6.20;99.90;;;;;;5092845;28;20133;-71
2022/01/13 12:22:39;;;;;;;67.28;24.02;;;6.30;99.90;;;;;;5085160;28;20105;-69
2022/01/13 12:25:08;;;;;;;62.05;20.13;;;6.30;99.90;;;;;;5065089;28;20048;-70
2022/01/13 12:27:39;;;;;;;51.45;21.70;;;6.30;99.90;;;;;;5070634;28;20032;-70
2022/01/13 12:30:09;;;;;;;46.05;19.42;;;6.20;99.90;;;;;;5084685;28;20399;-70
2022/01/13 12:32:47;;;;;;;57.60;21.58;;;6.30;99.90;;;;;;5081284;28;20075;-70
2022/01/13 12:35:27;;;;;;;56.60;22.50;;;6.30;99.90;;;;;;5082809;28;20393;-72
2022/01/13 12:38:03;;;;;;;56.65;23.05;;;6.30;99.90;;;;;;5083438;28;20043;-70
2022/01/13 12:40:43;;;;;;;52.75;20.60;;;6.70;99.90;;;;;;5085086;28;20126;-70
2022/01/13 12:46:16;;;;;;;62.42;25.15;;;6.40;99.90;;;;;;5045337;28;20043;-69
2022/01/13 12:48:44;;;;;;;66.15;27.88;;;6.40;99.90;;;;;;5085553;28;20036;-70
2022/01/13 12:51:18;;;;;;;65.57;25.38;;;6.30;99.90;;;;;;5080485;28;20457;-70
2022/01/13 12:53:45;;;;;;;58.65;25.55;;;6.40;99.90;;;;;;5087241;28;20039;-70
2022/01/13 12:56:22;;;;;;;59.80;24.75;;;6.40;99.90;;;;;;5088837;28;20040;-70
2022/01/13 12:58:52;;;;;;;62.78;27.05;;;6.40;99.90;;;;;;5083730;28;20131;-70
2022/01/13 13:01:20;;;;;;;67.53;27.77;;;6.50;99.90;;;;;;5079894;28;20127;-70
2022/01/13 13:04:01;;;;;;;69.80;27.60;;;6.50;99.90;;;;;;5081687;28;20048;-70
2022/01/13 13:06:28;;;;;;;62.83;25.67;;;6.50;99.90;;;;;;5084254;28;20040;-70
2022/01/13 13:09:21;;;;;;;63.95;25.85;;;6.60;99.90;;;;;;5083714;28;20130;-70